INFORMAÇÕES DO AERODROMO
Icao Aerodromo KSRR Nome do Aerodromo Sierra Blanca Regional Airport Cidade Ruidoso
Código GPS KSRR Elevação Média 6814 ft Tipo de Aerodromo Aeroporto Médio Porte

INFORMAÇÃO DE PISTA
Pista 06 Comprimento da Pista 8099 ft Largura da Pista 100 ft
Elevação da Pista 6814 ft Distância de Area de Escape da Pista 0 ft Orientação da Pista 71
Pista 24 Comprimento da Pista 8099 ft Largura da Pista 100 ft
Elevação da Pista 6751 ft Distância de Area de Escape da Pista 0 ft Orientação da Pista 251
Pista 12 Comprimento da Pista 6500 ft Largura da Pista 75 ft
Elevação da Pista 6769 ft Distância de Area de Escape da Pista 0 ft Orientação da Pista 130
Pista 30 Comprimento da Pista 6500 ft Largura da Pista 75 ft
Elevação da Pista 6718 ft Distância de Area de Escape da Pista 0 ft Orientação da Pista 310

FREQUÊNCIAS DO AERODROMO
Tipo AWOS Nome AWOS 3 Frequência 126.475 MHZ
Tipo CNTR Nome ALBUQUERQU Frequência 132.65 MHZ
Tipo FSS Nome ALBUQUERQU Frequência 122.25 MHZ
Tipo UNIC Nome CTAF/UNICO Frequência 122.8 MHZ

INFORMAÇÕES DE NAVEGAÇÃO PRÓXIMO AO AERODROMO
Tipo NDB Nome Capitan Frequência 278 KHZ

Informações de Meteorologia(METAR atual)
METAR DE KSRR
ADDS - METARS form results

(0350 UTC 23 January 2019)
Data provider http://aviationweather.gov/metar/data/
 
METAR text: KSRR 230335Z AUTO 19007KT 10SM SCT037 M06/M14 A3018 RMK AO2
Conditions at: KSRR (SIERRA B/RUIDOSO, NM, US) observed 0335 UTC 23 January 2019
Temperature: -6.0°C (21°F)
Dewpoint: -14.0°C ( 7°F) [RH = 53%]
Pressure (altimeter): 30.18 inches Hg (1022.1 mb)
Winds: from the S (190 degrees) at 8 MPH (7 knots; 3.6 m/s)
Visibility: 10 or more miles (16+ km)
Ceiling: at least 12,000 feet AGL
Clouds: scattered clouds at 3700 feet AGL
Weather: automated observation with no human augmentation;
there may or may not be significant weather present at this time

METAR text: KSRR 230315Z AUTO 19006KT 10SM SCT042 M06/M14 A3017 RMK AO2
Conditions at: KSRR (SIERRA B/RUIDOSO, NM, US) observed 0315 UTC 23 January 2019
Temperature: -6.0°C (21°F)
Dewpoint: -14.0°C ( 7°F) [RH = 53%]
Pressure (altimeter): 30.17 inches Hg (1021.8 mb)
Winds: from the S (190 degrees) at 7 MPH (6 knots; 3.1 m/s)
Visibility: 10 or more miles (16+ km)
Ceiling: at least 12,000 feet AGL
Clouds: scattered clouds at 4200 feet AGL
Weather: automated observation with no human augmentation;
there may or may not be significant weather present at this time

METAR text: KSRR 230255Z AUTO 16007KT 10SM SCT039 BKN045 M05/M14 A3017 RMK AO2
Conditions at: KSRR (SIERRA B/RUIDOSO, NM, US) observed 0255 UTC 23 January 2019
Temperature: -5.0°C (23°F)
Dewpoint: -14.0°C ( 7°F) [RH = 49%]
Pressure (altimeter): 30.17 inches Hg (1021.8 mb)
Winds: from the SSE (160 degrees) at 8 MPH (7 knots; 3.6 m/s)
Visibility: 10 or more miles (16+ km)
Ceiling: 4500 feet AGL
Clouds: scattered clouds at 3900 feet AGL
broken clouds at 4500 feet AGL
Weather: automated observation with no human augmentation;
there may or may not be significant weather present at this time

MAPA DO AERODROMO


Desenvolvido por Virtual Airlines Manager




Modificado por Servidor Brasil Amigos